createdAt,value
2018-04-02T00:01:46.742Z,9.40
2018-04-02T00:04:14.521Z,8.93
2018-04-02T00:06:42.063Z,8.97
2018-04-02T00:09:09.834Z,9.60
2018-04-02T00:11:37.634Z,8.57
2018-04-02T00:14:05.366Z,9.13
2018-04-02T00:16:32.921Z,11.30
2018-04-02T00:19:00.847Z,27.57
2018-04-02T00:21:28.509Z,11.63
2018-04-02T00:23:56.389Z,10.30
2018-04-02T00:26:24.800Z,23.73
2018-04-02T00:28:52.522Z,12.97
2018-04-02T00:31:20.066Z,10.27
2018-04-02T00:33:47.876Z,13.33
2018-04-02T00:36:15.418Z,11.60
2018-04-02T00:38:42.961Z,11.63
2018-04-02T00:41:10.578Z,12.17
2018-04-02T00:43:38.199Z,12.63
2018-04-02T00:46:05.698Z,10.87
2018-04-02T00:48:33.278Z,12.07
2018-04-02T00:51:01.047Z,12.50
2018-04-02T00:53:28.864Z,11.23
2018-04-02T00:55:56.610Z,48.70
2018-04-02T00:58:24.938Z,23.97
2018-04-02T01:00:52.518Z,16.27
2018-04-02T01:03:20.095Z,10.33
2018-04-02T01:05:47.829Z,11.53
2018-04-02T01:08:15.380Z,10.27
2018-04-02T01:10:43.190Z,11.23
2018-04-02T01:13:11.576Z,10.27
2018-04-02T01:15:39.230Z,8.90
2018-04-02T01:18:06.921Z,9.90
2018-04-02T01:20:34.606Z,10.67
2018-04-02T01:23:02.146Z,8.67
2018-04-02T01:25:29.754Z,8.67
2018-04-02T01:27:58.067Z,10.73
2018-04-02T01:30:25.834Z,9.87
2018-04-02T01:32:53.430Z,8.80
2018-04-02T01:35:20.987Z,11.77
2018-04-02T01:37:48.534Z,9.60
2018-04-02T01:40:16.190Z,9.60
2018-04-02T01:42:43.728Z,10.10
2018-04-02T01:45:11.272Z,10.57
2018-04-02T01:47:38.843Z,10.30
2018-04-02T01:50:06.688Z,8.83
2018-04-02T01:52:34.238Z,10.63
2018-04-02T01:55:02.065Z,8.97
2018-04-02T01:57:29.629Z,9.63
2018-04-02T01:59:57.166Z,9.27
2018-04-02T02:02:25.317Z,9.90
2018-04-02T02:04:52.871Z,12.40
2018-04-02T02:07:20.439Z,13.00
2018-04-02T02:09:48.017Z,12.93
2018-04-02T02:12:15.834Z,12.53
2018-04-02T02:14:43.548Z,9.90
2018-04-02T02:17:11.143Z,11.27
2018-04-02T02:19:38.817Z,11.67
2018-04-02T02:22:06.538Z,10.97
2018-04-02T02:24:34.159Z,10.63
2018-04-02T02:27:02.057Z,13.13
2018-04-02T02:29:29.939Z,9.87
2018-04-02T02:31:57.675Z,12.10
2018-04-02T02:34:26.008Z,10.87
2018-04-02T02:36:53.562Z,11.47
2018-04-02T02:39:21.902Z,10.60
2018-04-02T02:41:49.459Z,10.03
2018-04-02T02:44:17.008Z,9.43
2018-04-02T02:46:44.836Z,10.23
2018-04-02T02:49:12.630Z,11.07
2018-04-02T02:51:40.155Z,9.43
2018-04-02T02:54:07.769Z,10.13
2018-04-02T02:56:35.306Z,9.43
2018-04-02T02:59:02.847Z,9.93
2018-04-02T03:01:30.733Z,10.03
2018-04-02T03:03:58.285Z,10.40
2018-04-02T03:06:25.826Z,8.10
2018-04-02T03:08:54.572Z,10.07
2018-04-02T03:11:22.889Z,10.80
2018-04-02T03:13:50.718Z,8.70
2018-04-02T03:16:19.063Z,11.13
2018-04-02T03:18:46.763Z,9.37
2018-04-02T03:21:14.482Z,7.60
2018-04-02T03:23:42.054Z,9.17
2018-04-02T03:26:09.589Z,7.00
2018-04-02T03:28:37.173Z,6.13
2018-04-02T03:31:04.742Z,7.53
2018-04-02T03:33:33.045Z,6.90
2018-04-02T03:36:00.590Z,7.30
2018-04-02T03:38:28.290Z,8.47
2018-04-02T03:40:55.825Z,9.43
2018-04-02T03:43:23.386Z,9.80
2018-04-02T03:45:50.959Z,9.30
2018-04-02T03:48:18.494Z,8.20
2018-04-02T03:50:46.202Z,10.63
2018-04-02T03:53:13.848Z,9.90
2018-04-02T03:55:41.705Z,13.87
2018-04-02T03:58:09.249Z,11.50
2018-04-02T04:00:36.836Z,11.77
2018-04-02T04:03:04.374Z,11.27
2018-04-02T04:05:31.910Z,8.47
2018-04-02T04:07:59.502Z,8.87
2018-04-02T04:10:27.274Z,10.50
2018-04-02T04:12:55.097Z,10.50
2018-04-02T04:15:22.791Z,10.10
2018-04-02T04:17:50.477Z,7.43
2018-04-02T04:20:18.073Z,10.17
2018-04-02T04:22:45.834Z,8.93
2018-04-02T04:25:14.138Z,8.93
2018-04-02T04:27:41.682Z,8.53
2018-04-02T04:30:09.266Z,8.37
2018-04-02T04:32:36.804Z,9.33
2018-04-02T04:35:04.360Z,7.07
2018-04-02T04:37:31.993Z,8.47
2018-04-02T04:40:00.294Z,8.00
2018-04-02T04:42:27.842Z,8.23
2018-04-02T04:44:55.602Z,7.47
2018-04-02T04:47:23.902Z,9.97
2018-04-02T04:49:51.670Z,10.13
2018-04-02T04:52:19.254Z,6.70
2018-04-02T04:54:46.801Z,6.97
2018-04-02T04:57:14.346Z,6.47
2018-04-02T04:59:41.926Z,8.93
2018-04-02T05:02:09.461Z,8.50
2018-04-02T05:04:36.998Z,8.20
2018-04-02T05:07:04.578Z,6.43
2018-04-02T05:09:32.115Z,7.00
2018-04-02T05:11:59.658Z,7.37
2018-04-02T05:14:28.143Z,5.60
2018-04-02T05:16:55.685Z,8.87
2018-04-02T05:19:23.393Z,40.80
2018-04-02T05:21:50.978Z,13.00
2018-04-02T05:24:18.537Z,6.83
2018-04-02T05:26:46.112Z,6.07
2018-04-02T05:29:13.684Z,6.90
2018-04-02T05:31:41.985Z,7.43
2018-04-02T05:34:09.545Z,8.03
2018-04-02T05:36:37.223Z,9.17
2018-04-02T05:39:05.563Z,9.83
2018-04-02T05:41:33.876Z,8.00
2018-04-02T05:44:01.467Z,11.50
2018-04-02T05:46:29.009Z,9.37
2018-04-02T05:48:56.549Z,9.13
2018-04-02T05:51:24.226Z,10.03
2018-04-02T05:53:51.766Z,11.30
2018-04-02T05:56:19.513Z,10.23
2018-04-02T05:58:47.158Z,11.73
2018-04-02T06:01:14.918Z,15.07
2018-04-02T06:03:43.230Z,13.80
2018-04-02T06:06:11.032Z,16.87
2018-04-02T06:08:38.573Z,12.20
2018-04-02T06:11:06.144Z,22.10
2018-04-02T06:13:33.721Z,21.40
2018-04-02T06:16:01.527Z,20.10
2018-04-02T06:18:29.297Z,12.03
2018-04-02T06:20:57.026Z,15.43
2018-04-02T06:23:25.337Z,19.57
2018-04-02T06:25:52.887Z,15.10
2018-04-02T06:28:20.623Z,18.73
2018-04-02T06:30:49.010Z,15.90
2018-04-02T06:33:16.558Z,14.30
2018-04-02T06:35:44.990Z,16.23
2018-04-02T06:38:12.546Z,13.43
2018-04-02T06:40:40.268Z,13.77
2018-04-02T06:43:07.862Z,12.93
2018-04-02T06:45:35.411Z,25.20
2018-04-02T06:48:03.054Z,15.40
2018-04-02T06:50:30.679Z,14.67
2018-04-02T06:52:58.258Z,13.80
2018-04-02T06:55:25.809Z,14.63
2018-04-02T06:57:53.391Z,15.03
2018-04-02T07:00:20.946Z,15.27
2018-04-02T07:02:48.514Z,8.27
2018-04-02T07:05:16.109Z,13.23
2018-04-02T07:07:43.679Z,13.83
2018-04-02T07:10:11.410Z,16.00
2018-04-02T07:12:40.161Z,13.10
2018-04-02T07:15:08.474Z,14.13
2018-04-02T07:17:36.257Z,14.93
2018-04-02T07:20:03.842Z,13.80
2018-04-02T07:22:31.404Z,14.07
2018-04-02T07:24:59.724Z,14.80
2018-04-02T07:27:27.319Z,14.63
2018-04-02T07:29:54.986Z,13.73
2018-04-02T07:32:22.548Z,14.93
2018-04-02T07:34:50.140Z,14.80
2018-04-02T07:37:17.890Z,17.17
2018-04-02T07:39:45.454Z,14.33
2018-04-02T07:42:13.855Z,17.20
2018-04-02T07:44:41.409Z,16.10
2018-04-02T07:47:08.968Z,19.80
2018-04-02T07:49:36.583Z,13.00
2018-04-02T07:52:05.656Z,13.43
2018-04-02T07:54:33.207Z,13.80
2018-04-02T07:57:00.793Z,16.27
2018-04-02T07:59:28.344Z,13.60
2018-04-02T08:01:55.905Z,12.57
2018-04-02T08:04:23.497Z,18.60
2018-04-02T08:06:51.049Z,12.37
2018-04-02T08:09:18.937Z,13.60
2018-04-02T08:11:46.719Z,14.57
2018-04-02T08:14:14.463Z,16.40
2018-04-02T08:16:42.030Z,16.70
2018-04-02T08:19:09.607Z,19.23
2018-04-02T08:21:37.179Z,13.90
2018-04-02T08:24:04.920Z,22.23
2018-04-02T08:26:32.647Z,17.33
2018-04-02T08:29:01.285Z,13.00
2018-04-02T08:31:28.967Z,22.17
2018-04-02T08:33:56.553Z,15.73
2018-04-02T08:36:24.411Z,20.57
2018-04-02T08:38:52.129Z,23.70
2018-04-02T08:41:19.761Z,16.33
2018-04-02T08:43:47.329Z,18.57
2018-04-02T08:46:14.879Z,14.83
2018-04-02T08:48:42.623Z,16.37
2018-04-02T08:51:10.211Z,15.17
2018-04-02T08:53:37.786Z,14.83
2018-04-02T08:56:05.375Z,15.20
2018-04-02T08:58:33.781Z,14.30
2018-04-02T09:01:01.759Z,16.87
2018-04-02T09:03:29.350Z,18.03
2018-04-02T09:05:56.942Z,17.87
2018-04-02T09:08:24.679Z,15.00
2018-04-02T09:10:52.274Z,12.60
2018-04-02T09:13:20.136Z,13.73
2018-04-02T09:15:47.690Z,32.37
2018-04-02T09:18:16.413Z,25.83
2018-04-02T09:20:43.971Z,13.60
2018-04-02T09:23:11.542Z,15.77
2018-04-02T09:25:39.129Z,15.97
2018-04-02T09:28:07.033Z,12.60
2018-04-02T09:30:35.352Z,10.93
2018-04-02T09:33:03.151Z,12.27
2018-04-02T09:35:30.971Z,15.07
2018-04-02T09:37:58.546Z,16.23
2018-04-02T09:40:26.151Z,14.23
2018-04-02T09:42:54.461Z,11.23
2018-04-02T09:45:22.221Z,11.87
2018-04-02T09:47:49.821Z,17.93
2018-04-02T09:50:18.270Z,11.03
2018-04-02T09:52:46.234Z,13.13
2018-04-02T09:55:13.932Z,12.53
2018-04-02T09:57:41.503Z,11.97
2018-04-02T10:00:09.093Z,14.90
2018-04-02T10:02:36.710Z,13.30
2018-04-02T10:05:06.401Z,12.83
2018-04-02T10:07:34.337Z,13.70
2018-04-02T10:10:02.440Z,14.93
2018-04-02T10:12:30.254Z,14.93
2018-04-02T10:14:58.694Z,11.07
2018-04-02T10:17:26.495Z,10.70
2018-04-02T10:19:54.395Z,12.10
2018-04-02T10:22:22.876Z,12.07
2018-04-02T10:24:50.680Z,13.07
2018-04-02T10:27:19.018Z,10.77
2018-04-02T10:29:46.920Z,13.03
2018-04-02T10:32:14.747Z,12.27
2018-04-02T10:34:42.615Z,12.40
2018-04-02T10:37:10.457Z,12.57
2018-04-02T10:39:38.352Z,13.10
2018-04-02T10:42:06.623Z,10.23
2018-04-02T10:44:34.419Z,10.83
2018-04-02T10:47:02.329Z,11.23
2018-04-02T10:49:29.905Z,11.63
2018-04-02T10:51:57.462Z,10.30
2018-04-02T10:54:25.535Z,12.43
2018-04-02T10:56:53.287Z,7.73
2018-04-02T10:59:21.659Z,8.77
2018-04-02T11:01:49.426Z,7.43
2018-04-02T11:04:17.091Z,9.03
2018-04-02T11:06:44.902Z,9.00
2018-04-02T11:09:12.705Z,7.53
2018-04-02T11:11:41.103Z,8.27
2018-04-02T11:14:08.763Z,8.30
2018-04-02T11:16:36.630Z,10.10
2018-04-02T11:19:04.195Z,10.93
2018-04-02T11:21:31.745Z,9.00
2018-04-02T11:23:59.428Z,9.90
2018-04-02T11:26:27.170Z,19.17
2018-04-02T11:28:55.885Z,9.30
2018-04-02T11:31:23.626Z,6.60
2018-04-02T11:33:51.587Z,9.27
2018-04-02T11:36:19.441Z,9.70
2018-04-02T11:38:47.055Z,10.27
2018-04-02T11:41:14.617Z,10.37
2018-04-02T11:43:42.792Z,11.67
2018-04-02T11:46:10.420Z,11.30
2018-04-02T11:48:38.267Z,10.73
2018-04-02T11:51:06.012Z,10.17
2018-04-02T11:53:33.661Z,10.13
2018-04-02T11:56:01.251Z,11.33
2018-04-02T11:58:29.005Z,8.90
2018-04-02T12:00:56.995Z,9.60
2018-04-02T12:03:24.727Z,9.07
2018-04-02T12:05:52.610Z,10.60
2018-04-02T12:08:20.649Z,9.53
2018-04-02T12:10:48.352Z,11.90
2018-04-02T12:13:16.242Z,8.93
2018-04-02T12:15:43.873Z,8.97
2018-04-02T12:18:11.612Z,10.07
2018-04-02T12:20:39.545Z,9.77
2018-04-02T12:23:08.317Z,10.67
2018-04-02T12:25:35.883Z,11.13
2018-04-02T12:28:03.619Z,9.63
2018-04-02T12:30:31.214Z,7.70
2018-04-02T12:32:58.792Z,8.40
2018-04-02T12:35:27.434Z,8.43
2018-04-02T12:37:55.325Z,8.10
2018-04-02T12:40:23.981Z,7.47
2018-04-02T12:42:52.436Z,8.47
2018-04-02T12:45:20.027Z,8.13
2018-04-02T12:47:47.941Z,7.37
2018-04-02T12:50:15.563Z,7.93
2018-04-02T12:52:43.318Z,8.77
2018-04-02T12:55:11.165Z,7.63
2018-04-02T12:57:39.053Z,7.83
2018-04-02T13:00:06.635Z,8.37
2018-04-02T13:02:34.590Z,7.10
2018-04-02T13:05:02.264Z,6.80
2018-04-02T13:07:30.810Z,9.93
2018-04-02T13:09:58.800Z,8.47
2018-04-02T13:12:27.452Z,8.60
2018-04-02T13:14:55.161Z,9.07
2018-04-02T13:17:23.605Z,8.13
2018-04-02T13:19:51.358Z,10.27
2018-04-02T13:22:18.968Z,9.37
2018-04-02T13:24:47.694Z,9.33
2018-04-02T13:27:15.286Z,7.43
2018-04-02T13:29:43.408Z,6.80
2018-04-02T13:32:10.975Z,7.93
2018-04-02T13:34:38.528Z,7.60
2018-04-02T13:37:06.502Z,8.07
2018-04-02T13:39:34.175Z,8.30
2018-04-02T13:42:02.031Z,10.37
2018-04-02T13:44:30.195Z,8.07
2018-04-02T13:46:58.038Z,8.67
2018-04-02T13:49:26.428Z,8.77
2018-04-02T13:51:54.559Z,8.20
2018-04-02T13:54:22.146Z,8.73
2018-04-02T13:56:49.768Z,7.43
2018-04-02T13:59:17.703Z,7.30
2018-04-02T14:01:45.481Z,8.80
2018-04-02T14:04:13.110Z,13.30
2018-04-02T14:06:41.098Z,10.03
2018-04-02T14:09:08.707Z,9.70
2018-04-02T14:11:36.292Z,7.53
2018-04-02T14:14:04.371Z,7.37
2018-04-02T14:16:32.356Z,10.60
2018-04-02T14:18:59.907Z,8.53
2018-04-02T14:21:27.946Z,7.53
2018-04-02T14:23:56.497Z,8.80
2018-04-02T14:26:24.075Z,10.40
2018-04-02T14:28:52.788Z,18.27
2018-04-02T14:31:20.674Z,9.43
2018-04-02T14:33:48.218Z,7.83
2018-04-02T14:36:16.122Z,9.23
2018-04-02T14:38:43.959Z,7.53
2018-04-02T14:41:11.660Z,8.43
2018-04-02T14:43:40.544Z,7.97
2018-04-02T14:46:09.687Z,9.10
2018-04-02T14:48:37.538Z,12.17
2018-04-02T14:51:05.536Z,8.83
2018-04-02T14:53:33.620Z,9.00
2018-04-02T14:56:01.577Z,7.73
2018-04-02T14:58:29.549Z,18.40
2018-04-02T15:00:57.416Z,10.63
2018-04-02T15:03:25.484Z,8.83
2018-04-02T15:05:53.463Z,10.63
2018-04-02T15:08:21.461Z,13.80
2018-04-02T15:10:49.030Z,9.43
2018-04-02T15:13:16.690Z,19.10
2018-04-02T15:15:44.607Z,12.93
2018-04-02T15:18:12.470Z,8.73
2018-04-02T15:20:40.422Z,10.67
2018-04-02T15:23:08.192Z,8.30
2018-04-02T15:25:36.053Z,10.17
2018-04-02T15:28:03.642Z,9.40
2018-04-02T15:30:31.599Z,9.87
2018-04-02T15:32:59.155Z,10.10
2018-04-02T15:35:26.794Z,14.57
2018-04-02T15:37:54.578Z,8.47
2018-04-02T15:40:22.708Z,9.17
2018-04-02T15:42:51.974Z,8.67
2018-04-02T15:45:19.540Z,8.27
2018-04-02T15:47:47.109Z,11.17
2018-04-02T15:50:14.709Z,19.20
2018-04-02T15:52:42.257Z,11.17
2018-04-02T15:55:09.805Z,9.90
2018-04-02T15:57:37.535Z,20.00
2018-04-02T16:00:05.198Z,16.17
2018-04-02T16:02:32.806Z,13.40
2018-04-02T16:05:00.400Z,16.63
2018-04-02T16:07:28.074Z,15.63
2018-04-02T16:09:56.720Z,14.57
2018-04-02T16:12:24.366Z,9.73
2018-04-02T16:14:52.194Z,11.57
2018-04-02T16:17:21.629Z,15.10
2018-04-02T16:19:49.423Z,16.70
2018-04-02T16:22:17.301Z,25.27
2018-04-02T16:24:45.137Z,16.17
2018-04-02T16:27:12.736Z,15.73
2018-04-02T16:29:40.539Z,19.77
2018-04-02T16:32:08.215Z,16.67
2018-04-02T16:34:35.835Z,12.10
2018-04-02T16:37:03.413Z,15.07
2018-04-02T16:39:31.852Z,33.17
2018-04-02T16:41:59.459Z,27.60
2018-04-02T16:44:27.137Z,35.70
2018-04-02T16:46:55.088Z,25.93
2018-04-02T16:49:23.497Z,22.20
2018-04-02T16:51:51.468Z,20.83
2018-04-02T16:54:19.271Z,21.67
2018-04-02T16:56:47.127Z,17.43
2018-04-02T16:59:14.678Z,25.23
2018-04-02T17:01:42.452Z,37.97
2018-04-02T17:04:10.060Z,43.50
2018-04-02T17:06:37.731Z,50.20
2018-04-02T17:09:05.365Z,23.30
2018-04-02T17:11:32.977Z,22.97
2018-04-02T17:14:00.539Z,25.73
2018-04-02T17:16:28.101Z,64.20
2018-04-02T17:18:55.699Z,71.20
2018-04-02T17:21:24.046Z,78.23
2018-04-02T17:23:51.856Z,69.97
2018-04-02T17:26:19.548Z,125.33
2018-04-02T17:28:47.122Z,157.17
2018-04-02T17:31:14.680Z,145.73
2018-04-02T17:33:43.100Z,106.43
2018-04-02T17:36:10.688Z,86.67
2018-04-02T17:38:38.276Z,67.33
2018-04-02T17:41:06.217Z,69.90
2018-04-02T17:43:33.774Z,90.90
2018-04-02T17:46:01.538Z,79.33
2018-04-02T17:48:29.142Z,124.77
2018-04-02T17:50:56.780Z,107.80
2018-04-02T17:53:24.360Z,96.00
2018-04-02T17:55:52.084Z,90.83
2018-04-02T17:58:20.022Z,83.03
2018-04-02T18:00:47.596Z,113.70
2018-04-02T18:03:15.205Z,175.30
2018-04-02T18:05:42.766Z,156.17
2018-04-02T18:08:10.353Z,186.13
2018-04-02T18:10:38.195Z,578.17
2018-04-02T18:13:06.621Z,162.20
2018-04-02T18:15:34.233Z,197.83
2018-04-02T18:18:02.156Z,230.77
2018-04-02T18:20:29.923Z,163.93
2018-04-02T18:22:57.882Z,197.47
2018-04-02T18:25:25.764Z,144.67
2018-04-02T18:27:53.331Z,122.77
2018-04-02T18:30:21.068Z,143.07
2018-04-02T18:32:49.004Z,132.73
2018-04-02T18:35:16.591Z,107.90
2018-04-02T18:37:44.147Z,108.10
2018-04-02T18:40:11.781Z,84.63
2018-04-02T18:42:40.112Z,81.47
2018-04-02T18:45:07.826Z,79.77
2018-04-02T18:47:35.781Z,100.43
2018-04-02T18:50:04.121Z,74.97
2018-04-02T18:52:31.745Z,78.93
2018-04-02T18:54:59.520Z,84.80
2018-04-02T18:57:27.213Z,82.43
2018-04-02T18:59:54.775Z,78.73
2018-04-02T19:02:22.539Z,86.90
2018-04-02T19:04:50.104Z,83.07
2018-04-02T19:07:17.700Z,93.47
2018-04-02T19:09:45.383Z,99.63
2018-04-02T19:12:12.972Z,95.67
2018-04-02T19:14:40.555Z,93.67
2018-04-02T19:17:08.173Z,92.00
2018-04-02T19:19:35.763Z,96.80
2018-04-02T19:22:03.323Z,97.90
2018-04-02T19:24:30.911Z,94.73
2018-04-02T19:26:58.506Z,101.13
2018-04-02T19:29:26.063Z,81.13
2018-04-02T19:31:53.819Z,71.13
2018-04-02T19:34:21.415Z,69.53
2018-04-02T19:36:49.762Z,75.10
2018-04-02T19:39:17.376Z,60.57
2018-04-02T19:41:44.935Z,69.17
2018-04-02T19:44:12.702Z,62.50
2018-04-02T19:46:40.328Z,67.47
2018-04-02T19:49:08.486Z,88.83
2018-04-02T19:51:36.053Z,109.03
2018-04-02T19:54:03.704Z,67.27
2018-04-02T19:56:31.721Z,73.93
2018-04-02T19:59:00.065Z,89.93
2018-04-02T20:01:27.704Z,91.93
2018-04-02T20:03:55.809Z,101.43
2018-04-02T20:06:23.814Z,104.37
2018-04-02T20:08:51.442Z,86.73
2018-04-02T20:11:19.914Z,118.33
2018-04-02T20:13:47.465Z,96.40
2018-04-02T20:16:15.922Z,71.67
2018-04-02T20:18:43.472Z,96.90
2018-04-02T20:21:11.055Z,114.90
2018-04-02T20:23:38.663Z,134.97
2018-04-02T20:26:06.227Z,116.60
2018-04-02T20:28:33.905Z,116.57
2018-04-02T20:31:01.772Z,87.17
2018-04-02T20:33:29.590Z,96.30
2018-04-02T20:35:57.146Z,96.47
2018-04-02T20:38:25.522Z,89.73
2018-04-02T20:40:53.120Z,107.87
2018-04-02T20:43:20.706Z,145.17
2018-04-02T20:45:48.354Z,123.40
2018-04-02T20:48:16.213Z,130.50
2018-04-02T20:50:43.893Z,143.63
2018-04-02T20:53:11.486Z,152.80
2018-04-02T20:55:39.120Z,134.93
2018-04-02T20:58:06.988Z,124.27
2018-04-02T21:00:34.598Z,131.37
2018-04-02T21:03:02.199Z,107.77
2018-04-02T21:05:29.943Z,188.17
2018-04-02T21:07:57.584Z,107.40
2018-04-02T21:10:25.431Z,109.07
2018-04-02T21:12:54.718Z,126.27
2018-04-02T21:15:23.120Z,136.17
2018-04-02T21:17:50.708Z,94.87
2018-04-02T21:20:18.280Z,86.50
2018-04-02T21:22:45.927Z,99.77
2018-04-02T21:25:13.481Z,114.80
2018-04-02T21:27:41.037Z,124.30
2018-04-02T21:30:08.629Z,126.50
2018-04-02T21:32:36.186Z,118.63
2018-04-02T21:35:03.807Z,122.83
2018-04-02T21:37:31.426Z,100.33
2018-04-02T21:39:58.997Z,108.83
2018-04-02T21:42:27.314Z,121.93
2018-04-02T21:44:55.079Z,161.33
2018-04-02T21:47:22.698Z,138.17
2018-04-02T21:49:50.259Z,101.57
2018-04-02T21:52:18.754Z,109.83
2018-04-02T21:54:46.322Z,95.70
2018-04-02T21:57:13.884Z,105.30
2018-04-02T21:59:41.590Z,124.73
2018-04-02T22:02:09.160Z,95.10
2018-04-02T22:04:37.555Z,93.33
2018-04-02T22:07:05.240Z,94.80
2018-04-02T22:09:33.605Z,92.77
2018-04-02T22:12:01.164Z,84.33
2018-04-02T22:14:28.842Z,106.83
2018-04-02T22:16:56.402Z,101.97
2018-04-02T22:19:23.955Z,96.77
2018-04-02T22:21:51.587Z,77.63
2018-04-02T22:24:19.149Z,80.83
2018-04-02T22:26:47.521Z,92.50
2018-04-02T22:29:15.135Z,81.33
2018-04-02T22:31:42.685Z,86.27
2018-04-02T22:34:10.410Z,97.07
2018-04-02T22:36:38.166Z,98.60
2018-04-02T22:39:05.742Z,75.67
2018-04-02T22:41:33.297Z,85.30
2018-04-02T22:44:00.885Z,93.17
2018-04-02T22:46:28.437Z,89.67
2018-04-02T22:48:55.999Z,82.77
2018-04-02T22:51:23.627Z,87.27
2018-04-02T22:53:51.444Z,81.03
2018-04-02T22:56:19.006Z,85.73
2018-04-02T22:58:46.653Z,78.70
2018-04-02T23:01:14.201Z,77.73
2018-04-02T23:03:41.952Z,75.50
2018-04-02T23:06:09.542Z,79.43
2018-04-02T23:08:37.101Z,76.33
2018-04-02T23:11:04.705Z,70.20
2018-04-02T23:13:32.269Z,72.40
2018-04-02T23:15:59.813Z,72.10
2018-04-02T23:18:28.123Z,75.50
2018-04-02T23:20:55.719Z,86.10
2018-04-02T23:23:23.302Z,66.97
2018-04-02T23:25:50.854Z,67.13
2018-04-02T23:28:19.238Z,79.30
2018-04-02T23:30:46.796Z,81.10
2018-04-02T23:33:15.173Z,107.97
2018-04-02T23:35:42.769Z,142.57
2018-04-02T23:38:10.378Z,126.30
2018-04-02T23:40:37.930Z,104.90
2018-04-02T23:43:07.080Z,64.80
2018-04-02T23:45:34.745Z,50.67
2018-04-02T23:48:02.289Z,74.90
2018-04-02T23:50:30.478Z,66.97
2018-04-02T23:52:58.341Z,60.43
2018-04-02T23:55:26.073Z,63.13
2018-04-02T23:57:54.509Z,60.83
